Time;durP1;ratioP1;P1;durP2;ratioP2;P2;SDS_P1;SDS_P2;PMS_P1;PMS_P2;Temp;Humidity;BMP_temperature;BMP_pressure;BME280_temperature;BME280_humidity;BME280_pressure;Samples;Min_cycle;Max_cycle;Signal;HPM_P1;HPM_P2
2022/01/24 00:02:03;;;;;;;31.98;13.57;;;;;;;-149.78;100.00;50498.81;5075377;28;20032;-68
2022/01/24 00:04:29;;;;;;;29.33;12.57;;;;;;;-149.78;100.00;50514.47;5069679;28;20033;-68
2022/01/24 00:06:55;;;;;;;31.65;13.60;;;;;;;-149.78;100.00;50510.56;5062146;28;20127;-68
2022/01/24 00:09:21;;;;;;;34.28;13.23;;;;;;;-149.78;100.00;50489.03;5064947;28;20029;-68
2022/01/24 00:17:04;;;;;;;31.63;13.77;;;;;;;-149.78;100.00;50510.56;5068291;28;20044;-68
2022/01/24 00:27:44;;;;;;;32.92;13.57;;;;;;;-149.78;100.00;50547.72;5066824;28;20142;-68
2022/01/24 00:30:11;;;;;;;37.33;13.65;;;;;;;-149.78;100.00;50510.56;5067403;28;20029;-68
2022/01/24 00:32:38;;;;;;;34.15;12.60;;;;;;;-149.78;100.00;50502.75;5048821;28;20063;-68
2022/01/24 00:35:04;;;;;;;30.85;12.45;;;;;;;-149.78;100.00;50522.28;5068679;28;20162;-68
2022/01/24 00:37:32;;;;;;;36.63;13.75;;;;;;;-149.78;100.00;50526.22;5031963;28;20566;-68
2022/01/24 00:39:58;;;;;;;35.90;13.70;;;;;;;-149.78;100.00;50487.09;5066366;28;20186;-68
2022/01/24 00:45:52;;;;;;;34.38;13.07;;;;;;;-149.78;100.00;50487.09;5021782;28;20046;-68
2022/01/24 00:56:07;;;;;;;34.88;13.50;;;;;;;-149.78;100.00;50510.56;5067151;28;20116;-68
2022/01/24 00:58:33;;;;;;;33.38;13.77;;;;;;;-149.78;100.00;50491.00;5066019;28;20055;-68
2022/01/24 01:00:59;;;;;;;34.30;13.50;;;;;;;-149.78;100.00;50530.13;5067670;28;20444;-68
2022/01/24 01:03:25;;;;;;;35.30;13.80;;;;;;;-149.78;100.00;50526.22;5065819;28;20036;-68
2022/01/24 01:06:08;;;;;;;34.17;13.60;;;;;;;-149.78;100.00;50545.75;5066537;28;20043;-68
2022/01/24 01:19:36;;;;;;;42.30;15.68;;;;;;;-149.78;100.00;50510.56;5047320;28;20161;-68
2022/01/24 01:22:03;;;;;;;41.22;14.88;;;;;;;-149.78;100.00;50516.44;5066666;28;20094;-68
2022/01/24 01:24:31;;;;;;;41.65;15.10;;;;;;;-149.78;100.00;50530.13;5064858;28;20036;-68
2022/01/24 01:27:04;;;;;;;42.28;15.93;;;;;;;-149.78;100.00;50514.47;5065111;28;20039;-68
2022/01/24 01:29:43;;;;;;;51.70;15.55;;;;;;;-149.78;100.00;50508.59;5064251;28;20123;-68
2022/01/24 01:32:18;;;;;;;41.00;15.93;;;;;;;-149.78;100.00;50555.53;5064365;28;20033;-68
2022/01/24 01:40:24;;;;;;;43.47;16.10;;;;;;;-149.78;100.00;50526.22;5059610;28;20036;-68
2022/01/24 01:54:06;;;;;;;50.58;16.73;;;;;;;-149.78;100.00;50487.09;5063185;28;20040;-68
2022/01/24 01:56:32;;;;;;;45.80;16.17;;;;;;;-149.78;100.00;50491.00;5063026;28;20562;-68
2022/01/24 01:58:58;;;;;;;44.22;15.73;;;;;;;-149.78;100.00;50577.06;5061362;28;20041;-68
2022/01/24 02:01:23;;;;;;;50.00;17.15;;;;;;;-149.78;100.00;50522.28;5067508;28;20051;-68
2022/01/24 02:03:54;;;;;;;47.38;17.48;;;;;;;-149.78;100.00;50502.75;5063492;28;20052;-69
2022/01/24 02:06:22;;;;;;;49.70;17.27;;;;;;;-149.78;100.00;50522.28;5064058;28;20136;-68
2022/01/24 02:08:47;;;;;;;51.83;17.52;;;;;;;-149.78;100.00;50541.84;5066159;28;20115;-68
2022/01/24 02:11:16;;;;;;;46.03;16.80;;;;;;;-149.78;100.00;50500.78;5065059;28;20453;-68
2022/01/24 02:13:42;;;;;;;51.83;16.88;;;;;;;-149.78;100.00;50506.66;5057144;28;20079;-68
2022/01/24 02:16:24;;;;;;;48.67;16.55;;;;;;;-149.78;100.00;50518.38;5063248;28;20091;-69
2022/01/24 02:19:20;;;;;;;50.92;17.25;;;;;;;-149.78;100.00;50510.56;5065104;28;20119;-69
2022/01/24 02:21:46;;;;;;;48.88;17.65;;;;;;;-149.78;100.00;50518.38;5060525;28;20074;-68
2022/01/24 02:24:15;;;;;;;55.97;17.45;;;;;;;-149.78;100.00;50498.81;5062445;28;20033;-68
2022/01/24 02:26:41;;;;;;;50.88;17.90;;;;;;;-149.78;100.00;50534.03;5065539;28;20044;-69
2022/01/24 02:30:14;;;;;;;46.42;18.65;;;;;;;-149.78;100.00;50541.84;5063953;28;20098;-69
2022/01/24 02:32:03;;;;;;;53.80;18.45;;;;;;;-149.78;100.00;50514.47;5046990;28;20047;-68
2022/01/24 02:34:34;;;;;;;56.35;19.33;;;;;;;-149.78;100.00;50522.28;5064487;28;20093;-68
2022/01/24 02:37:09;;;;;;;51.95;18.60;;;;;;;-149.78;100.00;50518.38;5064857;28;20056;-68
2022/01/24 02:39:59;;;;;;;54.35;18.88;;;;;;;-149.78;100.00;50522.28;5063608;28;20035;-69
2022/01/24 02:51:07;;;;;;;56.65;19.08;;;;;;;-149.78;100.00;50522.28;5062816;28;20037;-69
2022/01/24 02:53:34;;;;;;;51.75;19.50;;;;;;;-149.78;100.00;50535.97;5062922;28;20650;-68
2022/01/24 02:56:01;;;;;;;53.78;20.13;;;;;;;-149.78;100.00;50518.38;5062972;28;20083;-68
2022/01/24 02:58:28;;;;;;;55.47;19.45;;;;;;;-149.78;100.00;50539.91;5069336;28;20043;-69
2022/01/24 03:00:54;;;;;;;62.47;20.23;;;;;;;-149.78;100.00;50510.56;5072363;28;20037;-68
2022/01/24 03:03:22;;;;;;;57.78;21.20;;;;;;;-149.78;100.00;50549.69;5072685;28;20115;-68
2022/01/24 03:05:48;;;;;;;56.35;19.85;;;;;;;-149.78;100.00;50557.50;5072910;28;20024;-68
2022/01/24 03:08:15;;;;;;;56.28;20.13;;;;;;;-149.78;100.00;50491.00;5067262;28;20522;-69
2022/01/24 03:10:46;;;;;;;56.60;19.92;;;;;;;-149.78;100.00;50510.56;5064392;28;20039;-68
2022/01/24 03:15:50;;;;;;;58.05;20.38;;;;;;;-149.78;100.00;50532.06;5062648;28;20087;-69
2022/01/24 03:18:17;;;;;;;63.58;21.98;;;;;;;-149.78;100.00;50500.78;5064792;28;20041;-69
2022/01/24 03:20:43;;;;;;;75.72;22.83;;;;;;;-149.78;100.00;50518.38;5063213;28;20505;-69
2022/01/24 03:23:11;;;;;;;62.67;21.58;;;;;;;-149.78;100.00;50563.38;5063078;28;20040;-69
2022/01/24 03:25:36;;;;;;;69.32;22.20;;;;;;;-149.78;100.00;50502.75;5061416;28;20068;-69
2022/01/24 03:28:06;;;;;;;66.25;22.50;;;;;;;-149.78;100.00;50506.66;5067691;28;20024;-68
2022/01/24 03:30:34;;;;;;;65.63;22.02;;;;;;;-149.78;100.00;50553.59;5065441;28;20028;-68
2022/01/24 03:33:05;;;;;;;59.38;20.38;;;;;;;-149.78;100.00;50541.84;5067452;28;20513;-69
2022/01/24 03:35:32;;;;;;;67.68;22.45;;;;;;;-149.78;100.00;50535.97;5067795;28;20041;-69
2022/01/24 03:38:00;;;;;;;62.50;21.40;;;;;;;-149.78;100.00;50526.22;5065371;28;20479;-68
2022/01/24 03:40:28;;;;;;;65.18;21.77;;;;;;;-149.78;100.00;50530.13;5064673;28;20123;-69
2022/01/24 03:42:53;;;;;;;72.18;23.88;;;;;;;-149.78;100.00;50530.13;5063615;28;20127;-69
2022/01/24 03:45:35;;;;;;;69.97;23.15;;;;;;;-149.78;100.00;50526.22;5068348;28;20484;-68
2022/01/24 03:48:09;;;;;;;66.07;22.17;;;;;;;-149.78;100.00;50537.94;5066646;28;20032;-69
2022/01/24 03:50:35;;;;;;;70.63;22.63;;;;;;;-149.78;100.00;50514.47;5066747;28;20044;-69
2022/01/24 03:53:01;;;;;;;69.72;22.92;;;;;;;-149.78;100.00;50518.38;5070192;28;20032;-68
2022/01/24 03:55:26;;;;;;;69.88;22.98;;;;;;;-149.78;100.00;50510.56;5070302;28;20135;-68
2022/01/24 03:57:53;;;;;;;76.88;23.80;;;;;;;-149.78;100.00;50510.56;5049214;28;20040;-68
2022/01/24 04:00:19;;;;;;;71.13;23.63;;;;;;;-149.78;100.00;50514.47;5065111;28;20447;-68
2022/01/24 04:02:44;;;;;;;76.18;24.10;;;;;;;-149.78;100.00;50502.75;5049766;28;20048;-68
2022/01/24 04:05:10;;;;;;;71.22;24.30;;;;;;;-149.78;100.00;50514.47;5067537;28;20028;-69
2022/01/24 04:07:36;;;;;;;76.03;24.48;;;;;;;-149.78;100.00;50502.75;5065470;28;20025;-69
2022/01/24 04:10:06;;;;;;;71.20;24.42;;;;;;;-149.78;100.00;50557.50;5066560;28;20514;-69
2022/01/24 04:12:36;;;;;;;78.43;24.58;;;;;;;-149.78;100.00;50577.06;5072522;28;20059;-69
2022/01/24 04:17:46;;;;;;;76.40;24.25;;;;;;;-149.78;100.00;50565.31;5065892;28;20037;-68
2022/01/24 04:22:59;;;;;;;76.03;23.92;;;;;;;-149.78;100.00;50547.72;5067268;28;20036;-68
2022/01/24 04:25:25;;;;;;;80.03;24.83;;;;;;;-149.78;100.00;50545.75;5067003;28;20051;-68
2022/01/24 04:27:54;;;;;;;76.70;25.75;;;;;;;-149.78;100.00;50498.81;5069716;28;21303;-68
2022/01/24 04:30:22;;;;;;;79.43;24.77;;;;;;;-149.78;100.00;50510.56;5066826;28;20043;-69
2022/01/24 04:32:48;;;;;;;84.75;25.98;;;;;;;-149.78;100.00;50537.94;5065718;28;20033;-68
2022/01/24 04:35:14;;;;;;;75.90;24.70;;;;;;;-149.78;100.00;50553.59;5048900;28;20506;-68
2022/01/24 04:37:40;;;;;;;85.32;25.60;;;;;;;-149.78;100.00;50518.38;5065424;28;20048;-69
2022/01/24 04:40:07;;;;;;;79.13;26.25;;;;;;;-149.78;100.00;50534.03;5067115;28;20067;-69
2022/01/24 04:42:50;;;;;;;76.35;24.35;;;;;;;-149.78;100.00;50537.94;5066366;28;20158;-68
2022/01/24 04:45:38;;;;;;;85.13;25.38;;;;;;;-149.78;100.00;50512.50;5065656;28;20033;-69
2022/01/24 04:55:55;;;;;;;84.65;27.15;;;;;;;-149.78;100.00;50514.47;5064594;28;20037;-68
2022/01/24 04:58:21;;;;;;;88.43;26.48;;;;;;;-149.78;100.00;50522.28;5064386;28;20050;-68
2022/01/24 05:00:46;;;;;;;88.72;27.48;;;;;;;-149.78;100.00;50551.63;5064782;28;20479;-68
2022/01/24 05:03:12;;;;;;;89.72;27.80;;;;;;;-149.78;100.00;50537.94;5047375;28;21045;-68
2022/01/24 05:05:38;;;;;;;101.00;27.38;;;;;;;-149.78;100.00;50530.13;5046071;28;20072;-68
2022/01/24 05:08:05;;;;;;;87.05;27.10;;;;;;;-149.78;100.00;50545.75;5061750;28;20150;-69
2022/01/24 05:10:50;;;;;;;83.20;25.95;;;;;;;-149.78;100.00;50522.28;5065067;28;20468;-69
2022/01/24 05:24:00;;;;;;;90.07;29.70;;;;;;;-149.78;100.00;50545.75;5064681;28;20040;-68
2022/01/24 05:26:26;;;;;;;95.93;28.75;;;;;;;-149.78;100.00;50518.38;5064973;28;20036;-68
2022/01/24 05:28:52;;;;;;;92.10;29.40;;;;;;;-149.78;100.00;50543.81;5064791;28;20071;-69
2022/01/24 05:31:18;;;;;;;94.43;30.02;;;;;;;-149.78;100.00;50502.75;5064533;28;20087;-68
2022/01/24 05:33:44;;;;;;;100.63;30.00;;;;;;;-149.78;100.00;50520.34;5067062;28;20126;-69
2022/01/24 05:36:09;;;;;;;97.03;29.52;;;;;;;-149.78;100.00;50534.03;5047391;28;20045;-68
2022/01/24 05:38:35;;;;;;;91.05;28.42;;;;;;;-149.78;100.00;50553.59;5065180;28;20055;-69
2022/01/24 05:41:01;;;;;;;99.95;29.45;;;;;;;-149.78;100.00;50530.13;5066332;28;20130;-69
2022/01/24 05:43:27;;;;;;;102.20;29.70;;;;;;;-149.78;100.00;50545.75;5063044;28;20109;-69
2022/01/24 05:45:53;;;;;;;88.95;27.77;;;;;;;-149.78;100.00;50522.28;5064467;28;20040;-69
2022/01/24 05:48:18;;;;;;;85.88;26.02;;;;;;;-149.78;100.00;50549.69;5046470;28;20028;-68
2022/01/24 05:50:44;;;;;;;79.60;23.45;;;;;;;-149.78;100.00;50510.56;5064309;28;20032;-68
2022/01/24 05:53:10;;;;;;;72.88;23.55;;;;;;;-149.78;100.00;50561.41;5064637;28;20364;-69
2022/01/24 05:55:35;;;;;;;79.68;24.80;;;;;;;-149.78;100.00;50508.59;5064374;28;20037;-68
2022/01/24 05:58:01;;;;;;;71.40;22.50;;;;;;;-149.78;100.00;50537.94;5063643;28;20048;-69
2022/01/24 06:00:27;;;;;;;66.78;23.13;;;;;;;-149.78;100.00;50510.56;5065724;28;20040;-68
2022/01/24 06:02:52;;;;;;;70.63;22.73;;;;;;;-149.78;100.00;50526.22;5046539;28;20028;-68
2022/01/24 06:05:18;;;;;;;70.13;22.83;;;;;;;-149.78;100.00;50530.13;5063723;28;20048;-69
2022/01/24 06:07:44;;;;;;;72.68;22.13;;;;;;;-149.78;100.00;50547.72;5062136;28;20463;-63
2022/01/24 06:10:10;;;;;;;73.47;21.90;;;;;;;-149.78;100.00;50491.00;5045275;28;20542;-64
2022/01/24 06:12:36;;;;;;;68.45;21.35;;;;;;;-149.78;100.00;50514.47;5063530;28;20036;-64
2022/01/24 06:15:03;;;;;;;72.25;23.75;;;;;;;-149.78;100.00;50526.22;5048793;28;20049;-64
2022/01/24 06:17:29;;;;;;;65.60;21.33;;;;;;;-149.78;100.00;50510.56;5063426;28;20068;-64
2022/01/24 06:19:55;;;;;;;70.88;21.40;;;;;;;-149.78;100.00;50530.13;5047970;28;20033;-64
2022/01/24 06:22:20;;;;;;;66.22;21.30;;;;;;;-149.78;100.00;50537.94;5064957;28;20502;-64
2022/01/24 06:24:47;;;;;;;72.63;21.23;;;;;;;-149.78;100.00;50537.94;5063215;28;20404;-64
2022/01/24 06:27:13;;;;;;;64.07;20.65;;;;;;;-149.78;100.00;50555.53;5062777;28;20408;-63
2022/01/24 06:29:39;;;;;;;61.03;20.77;;;;;;;-149.78;100.00;50514.47;5062933;28;20090;-64
2022/01/24 06:32:05;;;;;;;61.30;20.45;;;;;;;-149.78;100.00;50541.84;5062693;28;20641;-64
2022/01/24 06:34:30;;;;;;;68.55;22.58;;;;;;;-149.78;100.00;50506.66;5045935;28;20486;-64
2022/01/24 06:36:57;;;;;;;70.60;22.67;;;;;;;-149.78;100.00;50549.69;5063747;28;20048;-64
2022/01/24 06:39:23;;;;;;;71.22;23.08;;;;;;;-149.78;100.00;50524.25;5062710;28;20043;-64
2022/01/24 06:42:06;;;;;;;69.78;24.25;;;;;;;-149.78;100.00;50549.69;5063400;28;20036;-64
2022/01/24 06:44:32;;;;;;;74.65;22.98;;;;;;;-149.78;100.00;50526.22;5063918;28;20024;-64
2022/01/24 06:46:58;;;;;;;78.07;24.20;;;;;;;-149.78;100.00;50500.78;5063153;28;20036;-64
2022/01/24 06:49:24;;;;;;;81.93;24.42;;;;;;;-149.78;100.00;50518.38;5046010;28;20033;-64
2022/01/24 06:51:50;;;;;;;79.13;24.63;;;;;;;-149.78;100.00;50561.41;5060947;28;20046;-64
2022/01/24 06:54:16;;;;;;;81.00;24.42;;;;;;;-149.78;100.00;50491.00;5065303;28;20158;-64
2022/01/24 06:56:42;;;;;;;71.28;23.67;;;;;;;-149.78;100.00;50514.47;5062368;28;20104;-64
2022/01/24 06:59:08;;;;;;;86.95;25.67;;;;;;;-149.78;100.00;50557.50;5060106;28;20064;-64
2022/01/24 07:01:33;;;;;;;79.55;24.70;;;;;;;-149.78;100.00;50537.94;5065098;28;20041;-64
2022/01/24 07:03:59;;;;;;;79.03;25.35;;;;;;;-149.78;100.00;50532.06;5061556;28;20047;-64
2022/01/24 07:06:25;;;;;;;85.72;25.00;;;;;;;-149.78;100.00;50502.75;5063996;28;20037;-64
2022/01/24 07:08:50;;;;;;;87.38;25.70;;;;;;;-149.78;100.00;50530.13;5066396;28;20029;-64
2022/01/24 07:11:16;;;;;;;92.13;27.33;;;;;;;-149.78;100.00;50506.66;5063376;28;20044;-65
2022/01/24 07:13:42;;;;;;;81.47;26.38;;;;;;;-149.78;100.00;50530.13;5063365;28;20045;-64
2022/01/24 07:16:07;;;;;;;88.72;27.27;;;;;;;-149.78;100.00;50510.56;5067064;28;20153;-63
2022/01/24 07:21:07;;;;;;;92.75;27.08;;;;;;;-149.78;100.00;50553.59;5049710;28;20122;-63
2022/01/24 07:23:34;;;;;;;87.07;26.90;;;;;;;-149.78;100.00;50526.22;5067541;28;20043;-69
2022/01/24 07:26:01;;;;;;;100.25;29.48;;;;;;;-149.78;100.00;50541.84;5067974;28;20049;-64
2022/01/24 07:28:26;;;;;;;96.88;29.02;;;;;;;-149.78;100.00;50549.69;5067609;28;20037;-64
2022/01/24 07:30:52;;;;;;;99.28;30.60;;;;;;;-149.78;100.00;50549.69;5069981;28;20044;-63
2022/01/24 07:33:17;;;;;;;106.95;28.70;;;;;;;-149.78;100.00;50532.06;5071958;28;20037;-63
2022/01/24 07:35:44;;;;;;;113.22;30.63;;;;;;;-149.78;100.00;50526.22;5065732;28;20033;-63
2022/01/24 07:38:11;;;;;;;96.47;28.13;;;;;;;-149.78;100.00;50563.38;5075779;28;20037;-63
2022/01/24 07:40:40;;;;;;;89.05;28.40;;;;;;;-149.78;100.00;50553.59;5075217;28;20040;-63
2022/01/24 07:43:15;;;;;;;104.20;28.85;;;;;;;-149.78;100.00;50502.75;5075847;28;20050;-68
2022/01/24 07:45:43;;;;;;;103.30;29.60;;;;;;;-149.78;100.00;50510.56;5070795;28;20106;-69
2022/01/24 07:48:10;;;;;;;103.10;29.48;;;;;;;-149.78;100.00;50537.94;5075951;28;20029;-69
2022/01/24 07:50:37;;;;;;;98.10;28.55;;;;;;;-149.78;100.00;50553.59;5075884;28;20131;-69
2022/01/24 07:53:03;;;;;;;94.22;28.48;;;;;;;-149.78;100.00;50530.13;5075686;28;20036;-69
2022/01/24 07:55:30;;;;;;;114.22;29.75;;;;;;;-149.78;100.00;50557.50;5075248;28;20039;-69
2022/01/24 07:57:56;;;;;;;111.32;29.15;;;;;;;-149.78;100.00;50565.31;5075436;28;20036;-68
2022/01/24 08:00:22;;;;;;;103.45;31.10;;;;;;;-149.78;100.00;50530.13;5075727;28;20105;-68
2022/01/24 08:02:48;;;;;;;100.75;30.27;;;;;;;-149.78;100.00;50534.03;5075154;28;20415;-68
2022/01/24 08:05:14;;;;;;;106.18;29.98;;;;;;;-149.78;100.00;50553.59;5075308;28;20047;-68
2022/01/24 08:07:40;;;;;;;106.43;30.70;;;;;;;-149.78;100.00;50514.47;5075507;28;20036;-68
2022/01/24 08:10:08;;;;;;;101.15;29.60;;;;;;;-149.78;100.00;50510.56;5075730;28;20111;-68
2022/01/24 08:12:35;;;;;;;100.13;30.02;;;;;;;-149.78;100.00;50514.47;5054827;28;20530;-68
2022/01/24 08:15:04;;;;;;;106.07;31.02;;;;;;;-149.78;100.00;50532.06;5075376;28;20040;-68
2022/01/24 08:17:30;;;;;;;106.38;30.30;;;;;;;-149.78;100.00;50537.94;5075028;28;20090;-68
2022/01/24 08:19:56;;;;;;;103.53;29.67;;;;;;;-149.78;100.00;50528.16;5074735;28;20036;-68
2022/01/24 08:22:22;;;;;;;106.20;29.48;;;;;;;-149.78;100.00;50541.84;5074501;28;20035;-68
2022/01/24 08:24:50;;;;;;;112.72;31.95;;;;;;;-149.78;100.00;50543.81;5056280;28;20040;-68
2022/01/24 08:27:18;;;;;;;103.90;29.90;;;;;;;-149.78;100.00;50549.69;5074121;28;20032;-68
2022/01/24 08:29:47;;;;;;;101.80;29.25;;;;;;;-149.78;100.00;50563.38;5045492;28;20089;-68
2022/01/24 08:32:13;;;;;;;106.57;29.50;;;;;;;-149.78;100.00;50561.41;5073403;28;20063;-67
2022/01/24 08:34:40;;;;;;;106.18;31.45;;;;;;;-149.78;100.00;50561.41;5072834;28;20033;-68
2022/01/24 08:37:05;;;;;;;111.50;30.88;;;;;;;-149.78;100.00;50526.22;5073019;28;20462;-68
2022/01/24 08:39:31;;;;;;;103.03;30.70;;;;;;;-149.78;100.00;50526.22;5056594;28;20045;-68
2022/01/24 08:42:09;;;;;;;102.60;29.08;;;;;;;-149.78;100.00;50526.22;5073939;28;20040;-68
2022/01/24 08:47:19;;;;;;;116.25;31.20;;;;;;;-149.78;100.00;50514.47;5074825;28;20051;-68
2022/01/24 08:49:45;;;;;;;117.90;31.27;;;;;;;-149.78;100.00;50518.38;5074667;28;20127;-68
2022/01/24 08:52:10;;;;;;;99.38;29.58;;;;;;;-149.78;100.00;50534.03;5074649;28;20028;-68
2022/01/24 08:54:36;;;;;;;114.30;32.03;;;;;;;-149.78;100.00;50510.56;5074757;28;20024;-68
2022/01/24 08:57:02;;;;;;;109.35;30.58;;;;;;;-149.78;100.00;50535.97;5074439;28;20056;-68
2022/01/24 08:59:28;;;;;;;126.05;31.65;;;;;;;-149.78;100.00;50534.03;5073774;28;20037;-68
2022/01/24 09:01:53;;;;;;;107.55;32.22;;;;;;;-149.78;100.00;50530.13;5074527;28;20120;-68
2022/01/24 09:04:19;;;;;;;115.40;31.67;;;;;;;-149.78;100.00;50547.72;5074506;28;20433;-68
2022/01/24 09:06:45;;;;;;;106.80;30.52;;;;;;;-149.78;100.00;50522.28;5074655;28;20169;-68
2022/01/24 09:09:13;;;;;;;120.15;32.35;;;;;;;-149.78;100.00;50553.59;5074581;28;20042;-68
2022/01/24 09:11:38;;;;;;;120.00;30.73;;;;;;;-149.78;100.00;50545.75;5074164;28;20040;-68
2022/01/24 09:14:06;;;;;;;122.68;30.13;;;;;;;-149.78;100.00;50522.28;5074056;28;20043;-68
2022/01/24 09:16:32;;;;;;;110.50;30.38;;;;;;;-149.78;100.00;50504.69;5074291;28;20040;-68
2022/01/24 09:18:58;;;;;;;103.28;30.05;;;;;;;-149.78;100.00;50526.22;5074212;28;20043;-68
2022/01/24 09:21:26;;;;;;;111.45;30.17;;;;;;;-149.78;100.00;50530.13;5074220;28;20452;-68
2022/01/24 09:23:51;;;;;;;102.70;30.23;;;;;;;-149.78;100.00;50541.84;5064666;28;20121;-68
2022/01/24 09:26:18;;;;;;;115.00;29.13;;;;;;;-149.78;100.00;50530.13;5063233;28;20070;-68
2022/01/24 09:28:44;;;;;;;95.20;28.23;;;;;;;-149.78;100.00;50492.97;5073833;28;20029;-68
2022/01/24 09:31:10;;;;;;;93.57;27.27;;;;;;;-149.78;100.00;50522.28;5073784;28;20549;-68
2022/01/24 09:33:36;;;;;;;98.38;27.60;;;;;;;-149.78;100.00;50526.22;5072158;28;20562;-68
2022/01/24 09:36:03;;;;;;;99.32;27.50;;;;;;;-149.78;100.00;50530.13;5073399;28;20123;-68
2022/01/24 09:38:31;;;;;;;94.82;27.48;;;;;;;-149.78;100.00;50518.38;5073220;28;20045;-68
2022/01/24 09:40:59;;;;;;;97.25;27.23;;;;;;;-149.78;100.00;50522.28;5073132;28;20029;-68
2022/01/24 09:43:25;;;;;;;89.70;26.65;;;;;;;-149.78;100.00;50510.56;5073326;28;20077;-68
2022/01/24 09:45:52;;;;;;;89.85;26.42;;;;;;;-149.78;100.00;50518.38;5073259;28;20391;-68
2022/01/24 09:48:18;;;;;;;90.97;27.27;;;;;;;-149.78;100.00;50520.34;5072893;28;20033;-68
2022/01/24 09:50:45;;;;;;;86.97;27.40;;;;;;;-149.78;100.00;50580.97;5063886;28;20031;-69
2022/01/24 09:53:13;;;;;;;88.38;25.75;;;;;;;-149.78;100.00;50565.31;5073385;28;20043;-69
2022/01/24 09:55:39;;;;;;;92.90;28.05;;;;;;;-149.78;100.00;50514.47;5070060;28;20044;-68
2022/01/24 09:58:05;;;;;;;92.05;27.20;;;;;;;-149.78;100.00;50518.38;5064317;28;20373;-68
2022/01/24 10:00:31;;;;;;;90.70;27.13;;;;;;;-149.78;100.00;50510.56;5041510;28;20033;-68
2022/01/24 10:03:00;;;;;;;96.25;28.70;;;;;;;-149.78;100.00;50561.41;5068617;28;20145;-69
2022/01/24 10:05:34;;;;;;;93.25;27.15;;;;;;;-149.78;100.00;50524.25;5063898;28;20124;-68
2022/01/24 10:08:03;;;;;;;82.63;25.73;;;;;;;-149.78;100.00;50498.81;5041932;28;20033;-68
2022/01/24 10:10:39;;;;;;;98.88;28.23;;;;;;;-149.78;100.00;50520.34;5039935;28;20056;-69
2022/01/24 10:16:48;;;;;;;89.82;26.10;;;;;;;-149.78;100.00;50506.66;5068781;28;20039;-69
2022/01/24 10:19:13;;;;;;;84.18;25.33;;;;;;;-149.78;100.00;50534.03;5071959;28;20075;-68
2022/01/24 10:21:42;;;;;;;95.07;27.25;;;;;;;-149.78;100.00;50549.69;5058884;28;20060;-69
2022/01/24 10:24:09;;;;;;;87.97;27.05;;;;;;;-149.78;100.00;50498.81;5048631;28;20035;-69
2022/01/24 10:26:35;;;;;;;94.10;27.77;;;;;;;-149.78;100.00;50522.28;5045673;28;20039;-68
2022/01/24 10:29:01;;;;;;;92.82;27.92;;;;;;;-149.78;100.00;50526.22;5042859;28;20029;-69
2022/01/24 10:31:29;;;;;;;90.63;26.50;;;;;;;-149.78;100.00;50545.75;5066039;28;20082;-69
2022/01/24 10:34:04;;;;;;;97.22;29.70;;;;;;;-149.78;100.00;50514.47;5069697;28;20414;-69
2022/01/24 10:36:36;;;;;;;98.05;28.40;;;;;;;-149.78;100.00;50547.72;5072655;28;20060;-69
2022/01/24 10:39:10;;;;;;;91.75;28.55;;;;;;;-149.78;100.00;50528.16;5072684;28;20032;-69
2022/01/24 10:41:54;;;;;;;97.50;27.13;;;;;;;-149.78;100.00;50549.69;5056573;28;20032;-69
2022/01/24 10:44:33;;;;;;;95.85;26.48;;;;;;;-149.78;100.00;50526.22;5072912;28;20043;-69
2022/01/24 10:47:10;;;;;;;98.40;28.48;;;;;;;-149.78;100.00;50526.22;5073056;28;20029;-69
2022/01/24 10:49:36;;;;;;;95.80;28.75;;;;;;;-149.78;100.00;50534.03;5056671;28;20364;-69
2022/01/24 10:52:13;;;;;;;103.38;28.10;;;;;;;-149.78;100.00;50491.00;5072864;28;20032;-69
2022/01/24 10:54:39;;;;;;;90.38;25.67;;;;;;;-149.78;100.00;50518.38;5072829;28;20032;-69
2022/01/24 10:57:06;;;;;;;90.20;26.27;;;;;;;-149.78;100.00;50492.97;5072947;28;20032;-69
2022/01/24 10:59:34;;;;;;;82.88;25.48;;;;;;;-149.78;100.00;50532.06;5072738;28;20054;-69
2022/01/24 11:02:02;;;;;;;93.45;26.95;;;;;;;-149.78;100.00;50575.09;5072782;28;20036;-69
2022/01/24 11:04:28;;;;;;;99.65;26.92;;;;;;;-149.78;100.00;50514.47;5072753;28;20071;-68
2022/01/24 11:06:56;;;;;;;88.75;26.35;;;;;;;-149.78;100.00;50514.47;5072742;28;20064;-69
2022/01/24 11:09:25;;;;;;;93.82;24.83;;;;;;;-149.78;100.00;50534.03;5072721;28;20028;-69
2022/01/24 11:12:08;;;;;;;92.07;24.85;;;;;;;-149.78;100.00;50530.13;5072602;28;20036;-68
2022/01/24 11:14:36;;;;;;;83.88;24.00;;;;;;;-149.78;100.00;50565.31;5072535;28;20024;-69
2022/01/24 11:17:03;;;;;;;82.53;25.60;;;;;;;-149.78;100.00;50537.94;5072652;28;20107;-63
2022/01/24 11:22:01;;;;;;;82.28;25.90;;;;;;;-149.78;100.00;50541.84;5062892;28;20029;-62
2022/01/24 11:24:38;;;;;;;81.30;26.10;;;;;;;-149.78;100.00;50506.66;5060354;28;20403;-63
2022/01/24 11:27:05;;;;;;;96.38;27.23;;;;;;;-149.78;100.00;50535.97;5057364;28;20098;-63
2022/01/24 11:29:32;;;;;;;90.90;26.17;;;;;;;-149.78;100.00;50553.59;5060272;28;20033;-63
2022/01/24 11:32:10;;;;;;;82.20;25.58;;;;;;;-149.78;100.00;50518.38;5062688;28;20040;-63
2022/01/24 11:34:38;;;;;;;81.00;23.77;;;;;;;-149.78;100.00;50485.13;5062905;28;20087;-63
2022/01/24 11:37:05;;;;;;;90.32;25.38;;;;;;;-149.78;100.00;50494.91;5061034;28;20040;-63
2022/01/24 11:39:31;;;;;;;83.45;24.00;;;;;;;-149.78;100.00;50510.56;5063328;28;20028;-63
2022/01/24 11:41:59;;;;;;;83.97;24.10;;;;;;;-149.78;100.00;50534.03;5055760;28;20447;-63
2022/01/24 11:44:43;;;;;;;77.30;23.30;;;;;;;-149.78;100.00;50475.34;5067244;28;20033;-63
2022/01/24 11:47:20;;;;;;;74.53;22.05;;;;;;;-149.78;100.00;50508.59;5062910;28;20102;-62
2022/01/24 11:49:46;;;;;;;76.72;22.10;;;;;;;-149.78;100.00;50524.25;5065988;28;20494;-63
2022/01/24 11:52:17;;;;;;;64.70;21.58;;;;;;;-149.78;100.00;50492.97;5067663;28;20127;-63
2022/01/24 11:55:13;;;;;;;66.65;20.17;;;;;;;-149.78;100.00;50487.09;5073811;28;20044;-63
2022/01/24 11:57:41;;;;;;;72.72;20.25;;;;;;;-149.78;100.00;50532.06;5063802;28;20369;-69
2022/01/24 12:00:07;;;;;;;64.50;21.48;;;;;;;-149.78;100.00;50504.69;5063082;28;20131;-69
2022/01/24 12:02:45;;;;;;;66.45;20.40;;;;;;;-149.78;100.00;50498.81;5069198;28;20379;-69
2022/01/24 12:05:16;;;;;;;73.88;20.60;;;;;;;-149.78;100.00;50508.59;5075115;28;20032;-68
2022/01/24 12:07:44;;;;;;;74.32;19.42;;;;;;;-149.78;100.00;50530.13;5075698;28;20038;-68
2022/01/24 12:10:38;;;;;;;66.20;19.35;;;;;;;-149.78;100.00;50539.91;5075625;28;20403;-68
2022/01/24 12:13:13;;;;;;;79.97;21.27;;;;;;;-149.78;100.00;50541.84;5075753;28;20059;-69
2022/01/24 12:15:41;;;;;;;80.03;22.33;;;;;;;-149.78;100.00;50514.47;5073530;28;20074;-69
2022/01/24 12:18:09;;;;;;;74.88;23.77;;;;;;;-149.78;100.00;50498.81;5052054;28;20029;-68
2022/01/24 12:20:34;;;;;;;68.50;21.83;;;;;;;-149.78;100.00;50526.22;5062916;28;20032;-68
2022/01/24 12:23:25;;;;;;;67.50;21.55;;;;;;;-149.78;100.00;50514.47;5058656;28;20360;-69
2022/01/24 12:26:00;;;;;;;71.53;19.98;;;;;;;-149.78;100.00;50506.66;5070910;28;20032;-68
2022/01/24 12:28:42;;;;;;;70.40;19.95;;;;;;;-149.78;100.00;50526.22;5068609;28;20395;-69
2022/01/24 12:31:23;;;;;;;64.57;20.80;;;;;;;-149.78;100.00;50518.38;5074816;28;20032;-68
2022/01/24 12:33:54;;;;;;;71.47;18.52;;;;;;;-149.78;100.00;50534.03;5064072;28;20036;-68
2022/01/24 12:36:47;;;;;;;59.97;17.85;;;;;;;-149.78;100.00;50496.88;5057154;28;20048;-68
2022/01/24 12:39:49;;;;;;;69.07;20.45;;;;;;;-149.78;100.00;50491.00;5061661;28;20056;-68